createdAt,value
2023-01-08T00:02:20.731Z,11.73
2023-01-08T00:05:06.238Z,9.57
2023-01-08T00:07:51.695Z,9.67
2023-01-08T00:10:38.297Z,9.17
2023-01-08T00:13:24.183Z,9.43
2023-01-08T00:16:13.646Z,10.03
2023-01-08T00:18:58.672Z,11.47
2023-01-08T00:21:44.129Z,12.30
2023-01-08T00:24:29.367Z,10.77
2023-01-08T00:27:14.276Z,10.07
2023-01-08T00:29:59.815Z,8.73
2023-01-08T00:32:44.740Z,9.63
2023-01-08T00:35:30.274Z,10.10
2023-01-08T00:38:15.799Z,10.53
2023-01-08T00:41:01.212Z,9.80
2023-01-08T00:43:46.093Z,11.10
2023-01-08T00:46:31.521Z,10.10
2023-01-08T00:49:16.247Z,9.97
2023-01-08T00:52:00.957Z,10.90
2023-01-08T00:54:45.962Z,10.00
2023-01-08T00:57:39.044Z,10.40
2023-01-08T01:00:24.515Z,10.97
2023-01-08T01:03:09.797Z,9.97
2023-01-08T01:06:03.062Z,10.80
2023-01-08T01:08:48.481Z,9.90
2023-01-08T01:11:34.171Z,9.47
2023-01-08T01:14:19.414Z,8.63
2023-01-08T01:17:04.910Z,9.57
2023-01-08T01:19:49.981Z,10.10
2023-01-08T01:22:35.587Z,9.40
2023-01-08T01:25:21.021Z,10.30
2023-01-08T01:28:06.543Z,11.13
2023-01-08T01:30:57.001Z,10.33
2023-01-08T01:33:42.790Z,8.60
2023-01-08T01:36:27.903Z,10.23
2023-01-08T01:39:12.889Z,10.20
2023-01-08T01:41:58.180Z,10.10
2023-01-08T01:44:45.402Z,10.73
2023-01-08T01:47:37.527Z,8.93
2023-01-08T01:50:45.810Z,10.43
2023-01-08T01:53:34.631Z,9.00
2023-01-08T01:56:20.503Z,11.13
2023-01-08T01:59:05.816Z,10.57
2023-01-08T02:01:52.259Z,9.07
2023-01-08T02:04:37.658Z,9.33
2023-01-08T02:07:37.178Z,9.67
2023-01-08T02:10:36.993Z,8.83
2023-01-08T02:13:37.240Z,9.70
2023-01-08T02:16:34.955Z,14.33
2023-01-08T02:19:28.885Z,10.70
2023-01-08T02:22:29.291Z,9.50
2023-01-08T02:25:21.443Z,9.63
2023-01-08T02:28:12.281Z,10.17
2023-01-08T02:30:58.695Z,9.77
2023-01-08T02:33:44.233Z,10.47
2023-01-08T02:36:47.171Z,9.00
2023-01-08T02:39:55.545Z,7.67
2023-01-08T02:43:06.433Z,9.83
2023-01-08T02:45:57.690Z,8.03
2023-01-08T02:48:47.480Z,8.40
2023-01-08T02:51:50.050Z,9.43
2023-01-08T02:54:37.579Z,7.53
2023-01-08T02:57:23.856Z,8.97
2023-01-08T03:00:10.144Z,9.03
2023-01-08T03:03:05.561Z,8.60
2023-01-08T03:05:58.088Z,8.47
2023-01-08T03:08:48.694Z,8.43
2023-01-08T03:11:41.266Z,10.63
2023-01-08T03:14:39.921Z,10.07
2023-01-08T03:17:31.386Z,8.57
2023-01-08T03:20:23.165Z,7.87
2023-01-08T03:23:10.957Z,10.03
2023-01-08T03:25:58.227Z,6.33
2023-01-08T03:28:51.907Z,9.47
2023-01-08T03:31:39.718Z,8.30
2023-01-08T03:34:28.162Z,7.97
2023-01-08T03:37:15.402Z,7.73
2023-01-08T03:40:13.937Z,8.63
2023-01-08T03:42:59.763Z,7.67
2023-01-08T03:45:50.845Z,10.70
2023-01-08T03:48:37.836Z,8.43
2023-01-08T03:51:23.223Z,8.60
2023-01-08T03:54:15.193Z,7.97
2023-01-08T03:57:00.918Z,8.50
2023-01-08T03:59:46.375Z,8.60
2023-01-08T04:02:31.785Z,7.33
2023-01-08T04:05:16.885Z,10.17
2023-01-08T04:08:02.351Z,7.63
2023-01-08T04:10:47.651Z,7.77
2023-01-08T04:13:33.005Z,9.83
2023-01-08T04:16:18.109Z,8.07
2023-01-08T04:19:03.409Z,7.23
2023-01-08T04:21:52.423Z,9.60
2023-01-08T04:24:37.472Z,7.23
2023-01-08T04:27:22.857Z,7.93
2023-01-08T04:30:08.317Z,5.77
2023-01-08T04:32:53.599Z,5.50
2023-01-08T04:35:38.928Z,7.57
2023-01-08T04:38:24.343Z,8.43
2023-01-08T04:41:09.743Z,5.23
2023-01-08T04:43:54.681Z,8.13
2023-01-08T04:46:39.532Z,7.43
2023-01-08T04:49:24.752Z,7.57
2023-01-08T04:52:10.259Z,7.23
2023-01-08T04:54:56.064Z,7.37
2023-01-08T04:57:41.059Z,7.10
2023-01-08T05:00:25.920Z,7.07
2023-01-08T05:03:11.049Z,6.43
2023-01-08T05:05:56.390Z,6.30
2023-01-08T05:08:41.817Z,7.10
2023-01-08T05:11:26.617Z,6.17
2023-01-08T05:14:11.903Z,6.97
2023-01-08T05:16:57.658Z,6.97
2023-01-08T05:19:42.661Z,6.20
2023-01-08T05:22:27.709Z,7.03
2023-01-08T05:25:13.188Z,10.87
2023-01-08T05:27:58.505Z,5.07
2023-01-08T05:30:43.354Z,4.87
2023-01-08T05:33:28.656Z,5.43
2023-01-08T05:36:14.190Z,5.40
2023-01-08T05:38:59.662Z,5.10
2023-01-08T05:41:44.448Z,4.90
2023-01-08T05:44:29.393Z,5.77
2023-01-08T05:47:14.708Z,5.87
2023-01-08T05:50:00.046Z,5.73
2023-01-08T05:52:45.646Z,6.17
2023-01-08T05:55:30.892Z,5.93
2023-01-08T05:58:15.996Z,4.50
2023-01-08T06:01:04.265Z,5.30
2023-01-08T06:03:49.213Z,4.80
2023-01-08T06:06:34.463Z,6.30
2023-01-08T06:09:19.498Z,6.57
2023-01-08T06:12:04.393Z,6.50
2023-01-08T06:14:49.567Z,4.53
2023-01-08T06:17:35.346Z,3.53
2023-01-08T06:20:20.287Z,3.23
2023-01-08T06:23:05.787Z,5.43
2023-01-08T06:25:55.640Z,5.30
2023-01-08T06:28:40.745Z,5.20
2023-01-08T06:31:25.745Z,4.30
2023-01-08T06:34:11.437Z,6.53
2023-01-08T06:36:56.561Z,4.47
2023-01-08T06:39:41.678Z,5.57
2023-01-08T06:42:26.600Z,5.10
2023-01-08T06:45:11.947Z,5.07
2023-01-08T06:48:01.278Z,4.73
2023-01-08T06:50:46.198Z,4.07
2023-01-08T06:53:31.220Z,3.57
2023-01-08T06:56:16.487Z,3.90
2023-01-08T06:59:01.366Z,6.33
2023-01-08T07:01:46.306Z,6.63
2023-01-08T07:04:31.735Z,5.23
2023-01-08T07:07:17.064Z,5.27
2023-01-08T07:10:02.677Z,4.03
2023-01-08T07:12:48.640Z,2.93
2023-01-08T07:15:33.758Z,3.30
2023-01-08T07:18:19.170Z,5.70
2023-01-08T07:21:05.495Z,4.20
2023-01-08T07:23:50.514Z,6.37
2023-01-08T07:26:35.542Z,4.07
2023-01-08T07:29:20.750Z,4.23
2023-01-08T07:32:05.657Z,4.03
2023-01-08T07:34:50.386Z,3.83
2023-01-08T07:37:40.441Z,3.83
2023-01-08T07:40:25.322Z,3.37
2023-01-08T07:43:10.224Z,3.20
2023-01-08T07:45:55.948Z,4.07
2023-01-08T07:48:41.767Z,5.90
2023-01-08T07:51:27.125Z,2.93
2023-01-08T07:54:12.267Z,5.07
2023-01-08T07:56:57.099Z,3.70
2023-01-08T07:59:42.438Z,2.87
2023-01-08T08:02:27.282Z,3.77
2023-01-08T08:05:12.686Z,6.37
2023-01-08T08:07:57.756Z,3.87
2023-01-08T08:10:43.490Z,3.20
2023-01-08T08:13:28.726Z,3.53
2023-01-08T08:16:14.225Z,3.80
2023-01-08T08:19:00.100Z,2.93
2023-01-08T08:21:45.626Z,4.53
2023-01-08T08:24:30.607Z,4.10
2023-01-08T08:27:15.851Z,2.40
2023-01-08T08:30:00.718Z,2.00
2023-01-08T08:32:46.298Z,3.63
2023-01-08T08:35:32.710Z,8.00
2023-01-08T08:38:18.588Z,2.10
2023-01-08T08:41:03.597Z,5.83
2023-01-08T08:43:48.946Z,7.43
2023-01-08T08:46:34.379Z,4.83
2023-01-08T08:49:21.951Z,8.87
2023-01-08T08:52:09.401Z,8.00
2023-01-08T08:54:54.628Z,8.57
2023-01-08T08:57:39.328Z,7.17
2023-01-08T09:00:24.332Z,6.20
2023-01-08T09:03:14.283Z,3.13
2023-01-08T09:05:59.974Z,3.80
2023-01-08T09:08:45.226Z,3.90
2023-01-08T09:11:31.776Z,3.03
2023-01-08T09:14:16.911Z,3.10
2023-01-08T09:17:01.867Z,5.33
2023-01-08T09:19:47.249Z,2.13
2023-01-08T09:22:32.896Z,3.83
2023-01-08T09:25:18.110Z,5.50
2023-01-08T09:28:05.986Z,3.87
2023-01-08T09:30:51.346Z,5.00
2023-01-08T09:33:36.600Z,4.13
2023-01-08T09:36:21.667Z,2.60
2023-01-08T09:39:07.005Z,5.20
2023-01-08T09:41:52.255Z,3.57
2023-01-08T09:44:42.326Z,2.83
2023-01-08T09:47:32.415Z,5.63
2023-01-08T09:50:17.881Z,3.17
2023-01-08T09:53:02.970Z,6.00
2023-01-08T09:56:08.630Z,4.00
2023-01-08T09:59:00.075Z,4.90
2023-01-08T10:01:46.316Z,4.20
2023-01-08T10:04:32.409Z,3.33
2023-01-08T10:07:26.314Z,5.37
2023-01-08T10:10:21.865Z,4.40
2023-01-08T10:13:08.650Z,2.73
2023-01-08T10:15:54.161Z,6.17
2023-01-08T10:18:39.626Z,4.63
2023-01-08T10:21:30.556Z,4.13
2023-01-08T10:24:15.494Z,5.90
2023-01-08T10:27:19.351Z,10.43
2023-01-08T10:30:06.528Z,7.73
2023-01-08T10:32:57.680Z,4.93
2023-01-08T10:35:43.305Z,4.87
2023-01-08T10:38:57.406Z,6.50
2023-01-08T10:41:42.873Z,7.43
2023-01-08T10:44:28.304Z,8.27
2023-01-08T10:47:16.935Z,8.27
2023-01-08T10:50:05.589Z,9.57
2023-01-08T10:52:56.264Z,9.60
2023-01-08T10:55:41.139Z,9.30
2023-01-08T10:58:29.176Z,14.27
2023-01-08T11:01:27.797Z,9.83
2023-01-08T11:04:24.036Z,11.73
2023-01-08T11:07:20.395Z,9.97
2023-01-08T11:10:06.213Z,10.00
2023-01-08T11:12:56.620Z,13.17
2023-01-08T11:15:42.138Z,11.13
2023-01-08T11:18:28.171Z,13.77
2023-01-08T11:21:33.154Z,10.60
2023-01-08T11:24:22.311Z,12.67
2023-01-08T11:27:14.161Z,11.30
2023-01-08T11:30:07.988Z,9.33
2023-01-08T11:33:04.872Z,8.60
2023-01-08T11:36:30.374Z,10.70
2023-01-08T11:39:17.343Z,13.17
2023-01-08T11:42:38.665Z,12.27
2023-01-08T11:46:02.905Z,11.13
2023-01-08T11:49:03.361Z,15.17
2023-01-08T11:52:20.002Z,9.93
2023-01-08T11:55:24.044Z,11.00
2023-01-08T11:58:30.808Z,13.10
2023-01-08T12:01:22.296Z,9.43
2023-01-08T12:04:16.869Z,12.93
2023-01-08T12:07:24.721Z,12.37
2023-01-08T12:10:24.979Z,11.13
2023-01-08T12:13:25.201Z,12.70
2023-01-08T12:16:28.855Z,8.30
2023-01-08T12:19:20.048Z,12.10
2023-01-08T12:22:52.961Z,10.30
2023-01-08T12:25:42.785Z,10.13
2023-01-08T12:28:43.632Z,10.27
2023-01-08T12:32:03.027Z,10.37
2023-01-08T12:34:58.005Z,8.30
2023-01-08T12:37:55.992Z,8.20
2023-01-08T12:40:59.240Z,10.90
2023-01-08T12:44:05.768Z,8.00
2023-01-08T12:46:53.329Z,6.07
2023-01-08T12:49:45.593Z,6.27
2023-01-08T12:52:55.702Z,5.47
2023-01-08T12:55:51.953Z,8.50
2023-01-08T12:58:45.891Z,5.97
2023-01-08T13:02:35.736Z,7.60
2023-01-08T13:05:20.861Z,9.07
2023-01-08T13:08:20.841Z,8.53
2023-01-08T13:11:07.375Z,6.67
2023-01-08T13:14:03.626Z,6.27
2023-01-08T13:17:02.307Z,6.40
2023-01-08T13:19:53.771Z,6.40
2023-01-08T13:22:39.261Z,6.13
2023-01-08T13:25:30.316Z,5.40
2023-01-08T13:28:38.483Z,7.87
2023-01-08T13:31:23.620Z,8.57
2023-01-08T13:34:21.181Z,6.30
2023-01-08T13:37:11.396Z,9.57
2023-01-08T13:40:01.818Z,6.20
2023-01-08T13:42:49.048Z,8.03
2023-01-08T13:45:34.320Z,5.63
2023-01-08T13:48:25.159Z,3.27
2023-01-08T13:51:30.668Z,4.60
2023-01-08T13:54:20.723Z,2.53
2023-01-08T13:57:13.426Z,4.53
2023-01-08T13:59:58.998Z,3.65
2023-01-08T14:02:46.156Z,7.63
2023-01-08T14:05:32.817Z,6.43
2023-01-08T14:08:25.512Z,3.73
2023-01-08T14:11:10.543Z,5.47
2023-01-08T14:13:56.659Z,4.30
2023-01-08T14:16:41.804Z,4.33
2023-01-08T14:19:27.934Z,4.67
2023-01-08T14:22:19.622Z,3.90
2023-01-08T14:25:06.772Z,3.07
2023-01-08T14:28:02.968Z,2.30
2023-01-08T14:30:53.576Z,4.17
2023-01-08T14:33:48.516Z,4.60
2023-01-08T14:36:33.926Z,3.30
2023-01-08T14:39:46.532Z,3.30
2023-01-08T14:42:32.948Z,2.87
2023-01-08T14:45:28.331Z,3.93
2023-01-08T14:48:34.824Z,1.90
2023-01-08T14:51:26.214Z,3.20
2023-01-08T14:54:19.189Z,3.10
2023-01-08T14:57:04.719Z,3.40
2023-01-08T14:59:56.418Z,4.50
2023-01-08T15:02:41.421Z,2.67
2023-01-08T15:05:32.706Z,3.60
2023-01-08T15:08:32.761Z,2.83
2023-01-08T15:11:18.142Z,1.57
2023-01-08T15:14:13.200Z,2.33
2023-01-08T15:17:09.181Z,2.83
2023-01-08T15:19:59.691Z,3.60
2023-01-08T15:22:45.849Z,1.57
2023-01-08T15:25:30.948Z,1.50
2023-01-08T15:28:16.118Z,1.60
2023-01-08T15:31:01.078Z,1.63
2023-01-08T15:33:45.803Z,4.03
2023-01-08T15:36:30.719Z,1.83
2023-01-08T15:39:15.610Z,2.90
2023-01-08T15:42:01.502Z,2.60
2023-01-08T15:44:46.932Z,2.43
2023-01-08T15:47:32.122Z,3.63
2023-01-08T15:50:17.600Z,4.23
2023-01-08T15:53:05.175Z,2.40
2023-01-08T15:55:51.393Z,2.90
2023-01-08T15:58:36.688Z,3.43
2023-01-08T16:01:21.764Z,3.30
2023-01-08T16:04:07.273Z,3.40
2023-01-08T16:06:52.526Z,5.43
2023-01-08T16:09:37.396Z,6.40
2023-01-08T16:12:22.617Z,5.00
2023-01-08T16:15:08.506Z,5.87
2023-01-08T16:17:54.062Z,8.40
2023-01-08T16:20:39.292Z,5.03
2023-01-08T16:23:24.766Z,5.43
2023-01-08T16:26:15.206Z,8.77
2023-01-08T16:29:00.463Z,5.90
2023-01-08T16:31:47.493Z,8.23
2023-01-08T16:34:32.520Z,6.23
2023-01-08T16:37:17.325Z,7.40
2023-01-08T16:40:02.038Z,10.60
2023-01-08T16:42:47.320Z,10.60
2023-01-08T16:45:32.293Z,12.23
2023-01-08T16:48:18.178Z,13.27
2023-01-08T16:51:06.675Z,12.57
2023-01-08T16:53:52.384Z,10.40
2023-01-08T16:56:37.679Z,11.10
2023-01-08T16:59:24.081Z,12.00
2023-01-08T17:02:10.023Z,13.20
2023-01-08T17:04:55.463Z,14.83
2023-01-08T17:07:40.954Z,15.10
2023-01-08T17:10:27.057Z,7.47
2023-01-08T17:13:12.917Z,11.03
2023-01-08T17:15:59.895Z,6.97
2023-01-08T17:18:45.604Z,8.97
2023-01-08T17:21:31.106Z,11.50
2023-01-08T17:24:16.336Z,10.77
2023-01-08T17:27:01.542Z,12.43
2023-01-08T17:29:47.305Z,11.13
2023-01-08T17:32:32.717Z,11.93
2023-01-08T17:35:18.605Z,9.97
2023-01-08T17:38:03.588Z,16.77
2023-01-08T17:40:48.927Z,13.53
2023-01-08T17:43:35.149Z,23.60
2023-01-08T17:46:20.285Z,11.27
2023-01-08T17:49:05.690Z,11.23
2023-01-08T17:51:51.183Z,10.50
2023-01-08T17:54:36.424Z,12.53
2023-01-08T17:57:22.631Z,10.17
2023-01-08T18:00:09.685Z,7.37
2023-01-08T18:02:55.069Z,10.83
2023-01-08T18:05:40.430Z,11.17
2023-01-08T18:08:25.723Z,8.87
2023-01-08T18:11:11.036Z,8.73
2023-01-08T18:13:57.155Z,8.23
2023-01-08T18:16:42.382Z,10.33
2023-01-08T18:19:27.648Z,10.87
2023-01-08T18:22:12.485Z,8.93
2023-01-08T18:24:57.607Z,10.03
2023-01-08T18:27:42.526Z,11.00
2023-01-08T18:30:27.412Z,10.57
2023-01-08T18:33:13.417Z,10.90
2023-01-08T18:36:03.020Z,8.67
2023-01-08T18:38:48.970Z,8.80
2023-01-08T18:41:34.124Z,7.27
2023-01-08T18:44:19.015Z,9.43
2023-01-08T18:47:04.391Z,8.80
2023-01-08T18:49:52.334Z,7.83
2023-01-08T18:52:37.974Z,6.73
2023-01-08T18:55:23.295Z,6.90
2023-01-08T18:58:08.725Z,7.87
2023-01-08T19:00:54.652Z,8.47
2023-01-08T19:03:39.963Z,8.30
2023-01-08T19:06:25.509Z,6.47
2023-01-08T19:09:10.904Z,9.07
2023-01-08T19:11:56.330Z,6.33
2023-01-08T19:14:42.271Z,7.63
2023-01-08T19:17:30.718Z,7.30
2023-01-08T19:20:16.474Z,9.83
2023-01-08T19:23:01.694Z,8.10
2023-01-08T19:25:46.832Z,9.53
2023-01-08T19:28:32.126Z,9.03
2023-01-08T19:31:18.428Z,9.33
2023-01-08T19:34:04.544Z,6.93
2023-01-08T19:36:49.508Z,8.93
2023-01-08T19:39:34.868Z,9.10
2023-01-08T19:42:20.206Z,9.97
2023-01-08T19:45:05.605Z,7.87
2023-01-08T19:47:51.232Z,7.43
2023-01-08T19:50:38.298Z,9.13
2023-01-08T19:53:23.340Z,9.17
2023-01-08T19:56:12.399Z,10.13
2023-01-08T19:58:58.201Z,9.57
2023-01-08T20:01:43.534Z,8.97
2023-01-08T20:04:29.475Z,9.50
2023-01-08T20:07:15.322Z,9.33
2023-01-08T20:10:00.763Z,10.10
2023-01-08T20:12:45.939Z,8.87
2023-01-08T20:15:30.737Z,8.40
2023-01-08T20:18:15.792Z,9.30
2023-01-08T20:21:16.410Z,7.27
2023-01-08T20:24:04.018Z,11.70
2023-01-08T20:26:49.225Z,8.93
2023-01-08T20:29:34.190Z,8.00
2023-01-08T20:32:20.974Z,8.93
2023-01-08T20:35:07.943Z,8.73
2023-01-08T20:37:53.037Z,26.90
2023-01-08T20:40:38.239Z,17.90
2023-01-08T20:43:23.751Z,12.80
2023-01-08T20:46:10.098Z,10.90
2023-01-08T20:48:56.677Z,12.43
2023-01-08T20:51:46.246Z,10.93
2023-01-08T20:54:36.373Z,14.17
2023-01-08T20:57:21.503Z,9.67
2023-01-08T21:00:07.387Z,13.30
2023-01-08T21:02:52.468Z,9.60
2023-01-08T21:05:37.876Z,11.37
2023-01-08T21:08:22.947Z,13.00
2023-01-08T21:11:09.841Z,11.07
2023-01-08T21:13:55.582Z,10.30
2023-01-08T21:16:40.929Z,9.20
2023-01-08T21:19:26.390Z,11.00
2023-01-08T21:22:11.493Z,10.67
2023-01-08T21:24:56.990Z,9.93
2023-01-08T21:27:42.244Z,9.53
2023-01-08T21:30:27.714Z,10.83
2023-01-08T21:33:13.078Z,11.10
2023-01-08T21:36:01.995Z,10.27
2023-01-08T21:38:48.283Z,10.07
2023-01-08T21:41:33.631Z,10.80
2023-01-08T21:44:22.206Z,9.20
2023-01-08T21:47:13.234Z,10.60
2023-01-08T21:49:58.373Z,10.20
2023-01-08T21:52:43.243Z,9.13
2023-01-08T21:55:28.425Z,7.50
2023-01-08T21:58:13.467Z,10.40
2023-01-08T22:00:58.485Z,7.60
2023-01-08T22:03:43.967Z,7.50
2023-01-08T22:06:29.188Z,7.97
2023-01-08T22:09:14.581Z,8.47
2023-01-08T22:11:59.643Z,8.60
2023-01-08T22:14:44.963Z,8.53
2023-01-08T22:17:30.840Z,10.17
2023-01-08T22:20:15.926Z,9.53
2023-01-08T22:23:01.141Z,9.97
2023-01-08T22:25:46.012Z,10.80
2023-01-08T22:28:31.138Z,8.80
2023-01-08T22:31:16.802Z,11.33
2023-01-08T22:34:01.744Z,9.63
2023-01-08T22:36:49.967Z,8.90
2023-01-08T22:39:35.075Z,7.17
2023-01-08T22:42:20.557Z,7.40
2023-01-08T22:45:06.639Z,6.63
2023-01-08T22:47:51.631Z,9.27
2023-01-08T22:50:36.616Z,8.40
2023-01-08T22:53:21.638Z,11.83
2023-01-08T22:56:08.839Z,10.10
2023-01-08T22:58:54.578Z,7.77
2023-01-08T23:01:40.068Z,9.13
2023-01-08T23:04:25.343Z,5.73
2023-01-08T23:07:10.459Z,6.77
2023-01-08T23:09:55.854Z,11.47
2023-01-08T23:12:41.311Z,9.37
2023-01-08T23:15:26.771Z,7.47
2023-01-08T23:18:11.908Z,7.57
2023-01-08T23:21:08.648Z,7.10
2023-01-08T23:23:54.189Z,5.87
2023-01-08T23:26:39.441Z,5.97
2023-01-08T23:29:25.215Z,8.63
2023-01-08T23:32:10.524Z,6.60
2023-01-08T23:34:56.106Z,6.60
2023-01-08T23:37:41.216Z,6.00
2023-01-08T23:40:26.555Z,5.83
2023-01-08T23:43:11.938Z,7.37
2023-01-08T23:46:01.230Z,7.97
2023-01-08T23:48:46.235Z,7.27
2023-01-08T23:51:31.785Z,9.23
2023-01-08T23:54:17.180Z,7.50
2023-01-08T23:57:03.617Z,9.47
2023-01-08T23:59:49.023Z,9.10
